sensor_id;sensor_type;location;lat;lon;timestamp;pressure;altitude;pressure_sealevel;temperature;humidity
30875;BME280;17581;43.222;27.924;2023-12-07T00:01:33;100371.19;;;10.63;100.00
30875;BME280;17581;43.222;27.924;2023-12-07T00:04:00;100379.53;;;10.60;100.00
30875;BME280;17581;43.222;27.924;2023-12-07T00:06:26;100361.81;;;10.57;100.00
30875;BME280;17581;43.222;27.924;2023-12-07T00:08:51;100362.25;;;10.62;100.00
30875;BME280;17581;43.222;27.924;2023-12-07T00:11:17;100350.59;;;10.52;100.00
30875;BME280;17581;43.222;27.924;2023-12-07T00:13:43;100365.09;;;10.61;100.00
30875;BME280;17581;43.222;27.924;2023-12-07T00:16:08;100362.69;;;10.58;100.00
30875;BME280;17581;43.222;27.924;2023-12-07T00:18:34;100374.25;;;10.58;100.00
30875;BME280;17581;43.222;27.924;2023-12-07T00:20:59;100392.25;;;10.58;100.00
30875;BME280;17581;43.222;27.924;2023-12-07T00:23:25;100393.09;;;10.58;100.00
30875;BME280;17581;43.222;27.924;2023-12-07T00:25:50;100379.06;;;10.55;100.00
30875;BME280;17581;43.222;27.924;2023-12-07T00:28:16;100386.72;;;10.59;100.00
30875;BME280;17581;43.222;27.924;2023-12-07T00:30:41;100366.47;;;10.55;100.00
30875;BME280;17581;43.222;27.924;2023-12-07T00:33:08;100381.88;;;10.53;100.00
30875;BME280;17581;43.222;27.924;2023-12-07T00:35:34;100381.16;;;10.51;100.00
30875;BME280;17581;43.222;27.924;2023-12-07T00:38:01;100386.53;;;10.51;100.00
30875;BME280;17581;43.222;27.924;2023-12-07T00:40:26;100387.00;;;10.56;100.00
30875;BME280;17581;43.222;27.924;2023-12-07T00:42:53;100381.28;;;10.50;100.00
30875;BME280;17581;43.222;27.924;2023-12-07T00:45:18;100383.84;;;10.51;100.00
30875;BME280;17581;43.222;27.924;2023-12-07T00:47:44;100383.59;;;10.54;100.00
30875;BME280;17581;43.222;27.924;2023-12-07T00:50:12;100377.72;;;10.49;100.00
30875;BME280;17581;43.222;27.924;2023-12-07T00:52:38;100383.59;;;10.54;100.00
30875;BME280;17581;43.222;27.924;2023-12-07T00:55:04;100388.81;;;10.56;100.00
30875;BME280;17581;43.222;27.924;2023-12-07T00:57:31;100381.88;;;10.53;100.00
30875;BME280;17581;43.222;27.924;2023-12-07T00:59:56;100379.38;;;10.61;100.00
30875;BME280;17581;43.222;27.924;2023-12-07T01:02:22;100379.13;;;10.64;100.00
30875;BME280;17581;43.222;27.924;2023-12-07T01:04:47;100385.75;;;10.60;100.00
30875;BME280;17581;43.222;27.924;2023-12-07T01:07:13;100351.50;;;10.42;100.00
30875;BME280;17581;43.222;27.924;2023-12-07T01:09:38;100363.25;;;10.61;100.00
30875;BME280;17581;43.222;27.924;2023-12-07T01:12:04;100366.66;;;10.63;100.00
30875;BME280;17581;43.222;27.924;2023-12-07T01:14:29;100361.66;;;10.59;100.00
30875;BME280;17581;43.222;27.924;2023-12-07T01:16:55;100372.31;;;10.60;100.00
30875;BME280;17581;43.222;27.924;2023-12-07T01:19:20;100358.53;;;10.54;100.00
30875;BME280;17581;43.222;27.924;2023-12-07T01:21:46;100351.38;;;10.43;100.00
30875;BME280;17581;43.222;27.924;2023-12-07T01:24:12;100352.72;;;10.49;100.00
30875;BME280;17581;43.222;27.924;2023-12-07T01:26:37;100353.88;;;10.56;100.00
30875;BME280;17581;43.222;27.924;2023-12-07T01:29:03;100360.38;;;10.53;100.00
30875;BME280;17581;43.222;27.924;2023-12-07T01:31:29;100367.47;;;10.54;100.00
30875;BME280;17581;43.222;27.924;2023-12-07T01:33:55;100356.81;;;10.53;100.00
30875;BME280;17581;43.222;27.924;2023-12-07T01:36:20;100359.41;;;10.54;100.00
30875;BME280;17581;43.222;27.924;2023-12-07T01:38:46;100358.47;;;10.44;100.00
30875;BME280;17581;43.222;27.924;2023-12-07T01:41:12;100361.88;;;10.46;100.00
30875;BME280;17581;43.222;27.924;2023-12-07T01:43:37;100360.03;;;10.47;100.00
30875;BME280;17581;43.222;27.924;2023-12-07T01:46:09;100360.63;;;10.50;100.00
30875;BME280;17581;43.222;27.924;2023-12-07T01:48:35;100350.28;;;10.46;100.00
30875;BME280;17581;43.222;27.924;2023-12-07T01:51:01;100361.03;;;10.46;100.00
30875;BME280;17581;43.222;27.924;2023-12-07T01:53:26;100358.66;;;10.52;100.00
30875;BME280;17581;43.222;27.924;2023-12-07T01:55:53;100345.28;;;10.41;100.00
30875;BME280;17581;43.222;27.924;2023-12-07T01:58:19;100353.28;;;10.52;100.00
30875;BME280;17581;43.222;27.924;2023-12-07T02:00:46;100359.66;;;10.51;100.00
30875;BME280;17581;43.222;27.924;2023-12-07T02:03:13;100344.09;;;10.34;100.00
30875;BME280;17581;43.222;27.924;2023-12-07T02:05:42;100361.31;;;10.43;100.00
30875;BME280;17581;43.222;27.924;2023-12-07T02:08:08;100368.84;;;10.49;100.00
30875;BME280;17581;43.222;27.924;2023-12-07T02:10:34;100363.38;;;10.39;100.00
30875;BME280;17581;43.222;27.924;2023-12-07T02:13:00;100371.19;;;10.42;100.00
30875;BME280;17581;43.222;27.924;2023-12-07T02:15:26;100372.44;;;10.38;100.00
30875;BME280;17581;43.222;27.924;2023-12-07T02:18:32;100361.41;;;10.41;100.00
30875;BME280;17581;43.222;27.924;2023-12-07T02:23:47;100373.91;;;10.31;100.00
30875;BME280;17581;43.222;27.924;2023-12-07T02:26:22;100374.19;;;10.28;100.00
30875;BME280;17581;43.222;27.924;2023-12-07T02:28:50;100351.25;;;10.13;100.00
30875;BME280;17581;43.222;27.924;2023-12-07T02:31:15;100369.72;;;10.17;100.00
30875;BME280;17581;43.222;27.924;2023-12-07T02:50:29;100389.16;;;9.99;100.00
30875;BME280;17581;43.222;27.924;2023-12-07T02:52:55;100376.00;;;9.96;100.00
30875;BME280;17581;43.222;27.924;2023-12-07T02:55:22;100369.41;;;10.00;100.00
30875;BME280;17581;43.222;27.924;2023-12-07T02:57:47;100382.06;;;9.98;100.00
30875;BME280;17581;43.222;27.924;2023-12-07T03:00:13;100385.03;;;9.95;100.00
30875;BME280;17581;43.222;27.924;2023-12-07T03:02:40;100373.56;;;9.93;100.00
30875;BME280;17581;43.222;27.924;2023-12-07T03:05:06;100380.50;;;9.95;100.00
30875;BME280;17581;43.222;27.924;2023-12-07T03:07:33;100376.00;;;9.96;100.00
30875;BME280;17581;43.222;27.924;2023-12-07T03:09:59;100375.47;;;10.02;100.00
30875;BME280;17581;43.222;27.924;2023-12-07T03:12:25;100374.78;;;10.00;100.00
30875;BME280;17581;43.222;27.924;2023-12-07T03:14:50;100392.72;;;9.99;100.00
30875;BME280;17581;43.222;27.924;2023-12-07T03:17:16;100389.16;;;9.99;100.00
30875;BME280;17581;43.222;27.924;2023-12-07T03:19:42;100387.00;;;9.93;100.00
30875;BME280;17581;43.222;27.924;2023-12-07T03:22:08;100387.50;;;9.87;100.00
30875;BME280;17581;43.222;27.924;2023-12-07T03:24:37;100379.44;;;9.87;100.00
30875;BME280;17581;43.222;27.924;2023-12-07T03:27:03;100382.88;;;9.77;100.00
30875;BME280;17581;43.222;27.924;2023-12-07T03:29:29;100388.00;;;9.80;100.00
30875;BME280;17581;43.222;27.924;2023-12-07T03:31:55;100373.34;;;9.73;100.00
30875;BME280;17581;43.222;27.924;2023-12-07T03:34:20;100354.72;;;9.61;100.00
30875;BME280;17581;43.222;27.924;2023-12-07T03:36:47;100395.56;;;9.75;100.00
30875;BME280;17581;43.222;27.924;2023-12-07T03:39:17;100381.88;;;9.78;100.00
30875;BME280;17581;43.222;27.924;2023-12-07T03:41:48;100388.25;;;9.77;100.00
30875;BME280;17581;43.222;27.924;2023-12-07T03:44:14;100382.63;;;9.80;100.00
30875;BME280;17581;43.222;27.924;2023-12-07T03:46:39;100381.63;;;9.81;100.00
30875;BME280;17581;43.222;27.924;2023-12-07T03:49:05;100370.66;;;9.73;100.00
30875;BME280;17581;43.222;27.924;2023-12-07T03:51:31;100379.19;;;9.78;100.00
30875;BME280;17581;43.222;27.924;2023-12-07T03:53:57;100363.59;;;9.72;100.00
30875;BME280;17581;43.222;27.924;2023-12-07T03:56:28;100383.50;;;9.81;100.00
30875;BME280;17581;43.222;27.924;2023-12-07T03:58:54;100384.09;;;9.84;100.00
30875;BME280;17581;43.222;27.924;2023-12-07T04:01:27;100360.19;;;9.70;100.00
30875;BME280;17581;43.222;27.924;2023-12-07T04:03:54;100387.50;;;9.87;100.00
30875;BME280;17581;43.222;27.924;2023-12-07T04:06:23;100335.81;;;9.51;100.00
30875;BME280;17581;43.222;27.924;2023-12-07T04:08:49;100379.19;;;9.78;100.00
30875;BME280;17581;43.222;27.924;2023-12-07T04:11:14;100392.97;;;9.85;100.00
30875;BME280;17581;43.222;27.924;2023-12-07T04:13:41;100391.75;;;9.89;100.00
30875;BME280;17581;43.222;27.924;2023-12-07T04:16:10;100405.34;;;9.88;100.00
30875;BME280;17581;43.222;27.924;2023-12-07T04:18:36;100409.22;;;9.83;100.00
30875;BME280;17581;43.222;27.924;2023-12-07T04:21:02;100405.81;;;9.81;100.00
30875;BME280;17581;43.222;27.924;2023-12-07T04:23:28;100418.00;;;9.85;100.00
30875;BME280;17581;43.222;27.924;2023-12-07T04:25:54;100416.53;;;9.81;100.00
30875;BME280;17581;43.222;27.924;2023-12-07T04:28:19;100382.91;;;9.55;100.00
30875;BME280;17581;43.222;27.924;2023-12-07T04:30:45;100408.53;;;9.59;100.00
30875;BME280;17581;43.222;27.924;2023-12-07T04:33:10;100415.38;;;9.52;100.00
30875;BME280;17581;43.222;27.924;2023-12-07T04:35:36;100410.75;;;9.32;100.00
30875;BME280;17581;43.222;27.924;2023-12-07T04:38:01;100426.88;;;9.32;100.00
30875;BME280;17581;43.222;27.924;2023-12-07T04:40:27;100407.09;;;9.11;100.00
30875;BME280;17581;43.222;27.924;2023-12-07T04:42:53;100412.94;;;9.16;100.00
30875;BME280;17581;43.222;27.924;2023-12-07T04:45:18;100409.25;;;9.06;100.00
30875;BME280;17581;43.222;27.924;2023-12-07T04:47:44;100411.72;;;8.98;100.00
30875;BME280;17581;43.222;27.924;2023-12-07T04:50:10;100385.56;;;8.77;100.00
30875;BME280;17581;43.222;27.924;2023-12-07T04:52:36;100416.22;;;8.86;100.00
30875;BME280;17581;43.222;27.924;2023-12-07T04:55:02;100433.03;;;8.88;100.00
30875;BME280;17581;43.222;27.924;2023-12-07T04:57:27;100406.91;;;8.68;100.00
30875;BME280;17581;43.222;27.924;2023-12-07T04:59:53;100392.03;;;8.64;100.00
30875;BME280;17581;43.222;27.924;2023-12-07T05:02:19;100393.44;;;8.57;100.00
30875;BME280;17581;43.222;27.924;2023-12-07T05:04:44;100417.75;;;8.77;100.00
30875;BME280;17581;43.222;27.924;2023-12-07T05:07:11;100415.31;;;8.74;100.00
30875;BME280;17581;43.222;27.924;2023-12-07T05:09:37;100392.34;;;8.59;100.00
30875;BME280;17581;43.222;27.924;2023-12-07T05:12:04;100416.53;;;8.70;100.00
30875;BME280;17581;43.222;27.924;2023-12-07T05:14:31;100417.00;;;8.64;100.00
30875;BME280;17581;43.222;27.924;2023-12-07T05:16:56;100408.22;;;8.62;100.00
30875;BME280;17581;43.222;27.924;2023-12-07T05:19:25;100417.50;;;8.69;100.00
30875;BME280;17581;43.222;27.924;2023-12-07T05:21:51;100406.28;;;8.64;100.00
30875;BME280;17581;43.222;27.924;2023-12-07T05:24:17;100428.94;;;8.71;100.00
30875;BME280;17581;43.222;27.924;2023-12-07T05:26:43;100410.66;;;8.65;100.00
30875;BME280;17581;43.222;27.924;2023-12-07T05:29:11;100387.47;;;8.53;100.00
30875;BME280;17581;43.222;27.924;2023-12-07T05:31:37;100422.84;;;8.69;100.00
30875;BME280;17581;43.222;27.924;2023-12-07T05:34:02;100417.00;;;8.64;100.00
30875;BME280;17581;43.222;27.924;2023-12-07T05:36:28;100410.78;;;8.64;100.00
30875;BME280;17581;43.222;27.924;2023-12-07T05:38:54;100414.31;;;8.64;100.00
30875;BME280;17581;43.222;27.924;2023-12-07T05:41:20;100411.16;;;8.70;100.00
30875;BME280;17581;43.222;27.924;2023-12-07T05:43:45;100416.53;;;8.70;100.00
30875;BME280;17581;43.222;27.924;2023-12-07T05:46:11;100392.81;;;8.53;100.00
30875;BME280;17581;43.222;27.924;2023-12-07T05:48:37;100419.31;;;8.69;100.00
30875;BME280;17581;43.222;27.924;2023-12-07T05:51:03;100424.06;;;8.65;100.00
30875;BME280;17581;43.222;27.924;2023-12-07T05:53:28;100412.69;;;8.51;100.00
30875;BME280;17581;43.222;27.924;2023-12-07T05:55:54;100395.25;;;8.45;100.00
30875;BME280;17581;43.222;27.924;2023-12-07T05:58:20;100444.69;;;8.65;100.00
30875;BME280;17581;43.222;27.924;2023-12-07T06:00:45;100430.34;;;8.53;100.00
30875;BME280;17581;43.222;27.924;2023-12-07T06:03:15;100425.00;;;8.53;100.00
30875;BME280;17581;43.222;27.924;2023-12-07T06:05:41;100422.28;;;8.42;100.00
30875;BME280;17581;43.222;27.924;2023-12-07T06:08:07;100424.63;;;8.47;100.00
30875;BME280;17581;43.222;27.924;2023-12-07T06:10:32;100424.50;;;8.48;100.00
30875;BME280;17581;43.222;27.924;2023-12-07T06:12:58;100443.06;;;8.62;100.00
30875;BME280;17581;43.222;27.924;2023-12-07T06:15:26;100435.94;;;8.50;100.00
30875;BME280;17581;43.222;27.924;2023-12-07T06:17:52;100449.41;;;8.61;100.00
30875;BME280;17581;43.222;27.924;2023-12-07T06:20:18;100447.91;;;8.57;100.00
30875;BME280;17581;43.222;27.924;2023-12-07T06:22:43;100450.72;;;8.56;100.00
30875;BME280;17581;43.222;27.924;2023-12-07T06:25:09;100451.47;;;8.58;100.00
30875;BME280;17581;43.222;27.924;2023-12-07T06:27:35;100462.50;;;8.53;100.00
30875;BME280;17581;43.222;27.924;2023-12-07T06:30:01;100462.50;;;8.53;100.00
30875;BME280;17581;43.222;27.924;2023-12-07T06:32:27;100443.22;;;8.37;100.00
30875;BME280;17581;43.222;27.924;2023-12-07T06:34:52;100450.09;;;8.52;100.00
30875;BME280;17581;43.222;27.924;2023-12-07T06:37:18;100414.94;;;8.33;100.00
30875;BME280;17581;43.222;27.924;2023-12-07T06:39:45;100459.38;;;8.59;100.00
30875;BME280;17581;43.222;27.924;2023-12-07T06:42:11;100465.34;;;8.63;100.00
30875;BME280;17581;43.222;27.924;2023-12-07T06:44:36;100474.72;;;8.57;100.00
30875;BME280;17581;43.222;27.924;2023-12-07T06:47:02;100473.47;;;8.50;100.00
30875;BME280;17581;43.222;27.924;2023-12-07T06:49:30;100482.38;;;8.51;100.00
30875;BME280;17581;43.222;27.924;2023-12-07T06:51:56;100468.56;;;8.44;100.00
30875;BME280;17581;43.222;27.924;2023-12-07T06:54:21;100478.91;;;8.38;100.00
30875;BME280;17581;43.222;27.924;2023-12-07T06:56:47;100493.06;;;8.40;100.00
30875;BME280;17581;43.222;27.924;2023-12-07T06:59:13;100478.78;;;8.39;100.00
30875;BME280;17581;43.222;27.924;2023-12-07T07:01:38;100492.59;;;8.46;100.00
30875;BME280;17581;43.222;27.924;2023-12-07T07:04:04;100481.00;;;8.45;100.00
30875;BME280;17581;43.222;27.924;2023-12-07T07:06:29;100490.63;;;8.48;100.00
30875;BME280;17581;43.222;27.924;2023-12-07T07:08:55;100494.91;;;8.50;100.00
30875;BME280;17581;43.222;27.924;2023-12-07T07:11:20;100479.88;;;8.37;100.00
30875;BME280;17581;43.222;27.924;2023-12-07T07:13:46;100508.63;;;8.58;100.00
30875;BME280;17581;43.222;27.924;2023-12-07T07:16:11;100490.09;;;8.55;100.00
30875;BME280;17581;43.222;27.924;2023-12-07T07:18:38;100480.56;;;8.51;100.00
30875;BME280;17581;43.222;27.924;2023-12-07T07:21:04;100497.44;;;8.64;100.00
30875;BME280;17581;43.222;27.924;2023-12-07T07:23:29;100505.47;;;8.64;100.00
30875;BME280;17581;43.222;27.924;2023-12-07T07:25:55;100486.63;;;8.53;100.00
30875;BME280;17581;43.222;27.924;2023-12-07T07:28:20;100488.50;;;8.53;100.00
30875;BME280;17581;43.222;27.924;2023-12-07T07:30:46;100509.56;;;8.57;100.00
30875;BME280;17581;43.222;27.924;2023-12-07T07:33:12;100503.25;;;8.58;100.00
30875;BME280;17581;43.222;27.924;2023-12-07T07:35:37;100510.19;;;8.61;100.00
30875;BME280;17581;43.222;27.924;2023-12-07T07:38:03;100507.06;;;8.67;100.00
30875;BME280;17581;43.222;27.924;2023-12-07T07:40:28;100508.53;;;8.71;100.00
30875;BME280;17581;43.222;27.924;2023-12-07T07:42:54;100504.00;;;8.71;100.00
30875;BME280;17581;43.222;27.924;2023-12-07T07:45:19;100501.88;;;8.77;100.00
30875;BME280;17581;43.222;27.924;2023-12-07T07:47:45;100503.78;;;8.74;100.00
30875;BME280;17581;43.222;27.924;2023-12-07T07:50:11;100512.69;;;8.75;100.00
30875;BME280;17581;43.222;27.924;2023-12-07T07:52:36;100516.94;;;8.66;100.00
30875;BME280;17581;43.222;27.924;2023-12-07T07:55:03;100514.19;;;8.55;100.00
30875;BME280;17581;43.222;27.924;2023-12-07T07:57:30;100508.78;;;8.44;100.00
30875;BME280;17581;43.222;27.924;2023-12-07T07:59:56;100518.47;;;8.58;100.00
30875;BME280;17581;43.222;27.924;2023-12-07T08:02:22;100512.94;;;8.48;100.00
30875;BME280;17581;43.222;27.924;2023-12-07T08:04:47;100534.44;;;8.59;100.00
30875;BME280;17581;43.222;27.924;2023-12-07T08:07:13;100535.41;;;8.58;100.00
30875;BME280;17581;43.222;27.924;2023-12-07T08:09:38;100547.84;;;8.59;100.00
30875;BME280;17581;43.222;27.924;2023-12-07T08:12:05;100542.00;;;8.65;100.00
30875;BME280;17581;43.222;27.924;2023-12-07T08:14:32;100545.84;;;8.74;100.00
30875;BME280;17581;43.222;27.924;2023-12-07T08:16:57;100544.88;;;8.75;100.00
30875;BME280;17581;43.222;27.924;2023-12-07T08:19:23;100525.94;;;8.65;100.00
30875;BME280;17581;43.222;27.924;2023-12-07T08:21:50;100532.53;;;8.72;100.00
30875;BME280;17581;43.222;27.924;2023-12-07T08:24:16;100505.97;;;8.69;100.00
30875;BME280;17581;43.222;27.924;2023-12-07T08:26:41;100531.63;;;8.85;100.00
30875;BME280;17581;43.222;27.924;2023-12-07T08:29:07;100508.66;;;8.69;100.00
30875;BME280;17581;43.222;27.924;2023-12-07T08:31:32;100525.41;;;8.84;100.00
30875;BME280;17581;43.222;27.924;2023-12-07T08:33:58;100510.00;;;8.75;100.00
30875;BME280;17581;43.222;27.924;2023-12-07T08:36:23;100511.59;;;8.77;100.00
30875;BME280;17581;43.222;27.924;2023-12-07T08:38:49;100533.59;;;8.94;100.00
30875;BME280;17581;43.222;27.924;2023-12-07T08:41:14;100503.91;;;8.73;100.00
30875;BME280;17581;43.222;27.924;2023-12-07T08:43:40;100521.28;;;8.91;100.00
30875;BME280;17581;43.222;27.924;2023-12-07T08:46:05;100530.22;;;9.03;100.00
30875;BME280;17581;43.222;27.924;2023-12-07T08:48:33;100540.94;;;9.03;100.00
30875;BME280;17581;43.222;27.924;2023-12-07T08:50:59;100533.91;;;9.02;100.00
30875;BME280;17581;43.222;27.924;2023-12-07T08:53:25;100535.13;;;9.09;100.00
30875;BME280;17581;43.222;27.924;2023-12-07T08:55:52;100532.31;;;9.10;100.00
30875;BME280;17581;43.222;27.924;2023-12-07T08:58:18;100545.38;;;9.15;100.00
30875;BME280;17581;43.222;27.924;2023-12-07T09:00:43;100543.22;;;9.20;100.00
30875;BME280;17581;43.222;27.924;2023-12-07T09:03:09;100538.09;;;9.28;100.00
30875;BME280;17581;43.222;27.924;2023-12-07T09:05:35;100550.31;;;9.43;100.00
30875;BME280;17581;43.222;27.924;2023-12-07T09:08:01;100539.97;;;9.50;100.00
30875;BME280;17581;43.222;27.924;2023-12-07T09:10:26;100546.69;;;9.55;100.00
30875;BME280;17581;43.222;27.924;2023-12-07T09:12:53;100544.13;;;9.76;100.00
30875;BME280;17581;43.222;27.924;2023-12-07T09:15:18;100547.66;;;9.76;100.00
30875;BME280;17581;43.222;27.924;2023-12-07T09:17:44;100548.03;;;9.83;99.81
30875;BME280;17581;43.222;27.924;2023-12-07T09:20:10;100519.34;;;9.83;99.98
30875;BME280;17581;43.222;27.924;2023-12-07T09:22:43;100557.78;;;10.06;99.08
30875;BME280;17581;43.222;27.924;2023-12-07T09:25:09;100522.53;;;10.00;98.56
30875;BME280;17581;43.222;27.924;2023-12-07T09:27:36;100557.22;;;10.14;96.69
30875;BME280;17581;43.222;27.924;2023-12-07T09:30:07;100547.03;;;10.06;95.49
30875;BME280;17581;43.222;27.924;2023-12-07T09:32:36;100543.16;;;9.99;94.56
30875;BME280;17581;43.222;27.924;2023-12-07T09:35:07;100517.41;;;9.85;94.58
30875;BME280;17581;43.222;27.924;2023-12-07T09:37:35;100541.91;;;10.03;94.69
30875;BME280;17581;43.222;27.924;2023-12-07T09:40:01;100542.78;;;10.04;95.00
30875;BME280;17581;43.222;27.924;2023-12-07T09:42:29;100544.59;;;10.03;94.08
30875;BME280;17581;43.222;27.924;2023-12-07T09:44:55;100540.09;;;10.04;93.45
30875;BME280;17581;43.222;27.924;2023-12-07T09:47:20;100536.69;;;10.02;93.02
30875;BME280;17581;43.222;27.924;2023-12-07T09:49:46;100542.06;;;10.02;93.06
30875;BME280;17581;43.222;27.924;2023-12-07T09:52:11;100538.03;;;10.07;92.47
30875;BME280;17581;43.222;27.924;2023-12-07T09:54:42;100533.03;;;10.03;92.43
30875;BME280;17581;43.222;27.924;2023-12-07T09:57:09;100541.44;;;10.09;91.28
30875;BME280;17581;43.222;27.924;2023-12-07T09:59:38;100551.84;;;10.14;90.86
30875;BME280;17581;43.222;27.924;2023-12-07T10:02:06;100526.91;;;10.12;90.36
30875;BME280;17581;43.222;27.924;2023-12-07T10:04:32;100550.38;;;10.21;89.49
30875;BME280;17581;43.222;27.924;2023-12-07T10:06:58;100524.72;;;9.95;88.24
30875;BME280;17581;43.222;27.924;2023-12-07T10:09:23;100536.94;;;10.21;88.07
30875;BME280;17581;43.222;27.924;2023-12-07T10:11:49;100533.50;;;10.19;87.05
30875;BME280;17581;43.222;27.924;2023-12-07T10:14:15;100527.16;;;10.20;85.10
30875;BME280;17581;43.222;27.924;2023-12-07T10:17:00;100536.19;;;10.08;84.93
30875;BME280;17581;43.222;27.924;2023-12-07T10:19:26;100535.81;;;10.12;86.18
30875;BME280;17581;43.222;27.924;2023-12-07T10:21:53;100536.44;;;10.27;86.54
30875;BME280;17581;43.222;27.924;2023-12-07T10:24:24;100534.13;;;10.33;86.60
30875;BME280;17581;43.222;27.924;2023-12-07T10:26:51;100541.75;;;10.49;86.51
30875;BME280;17581;43.222;27.924;2023-12-07T10:29:19;100537.63;;;10.45;84.53
30875;BME280;17581;43.222;27.924;2023-12-07T10:31:45;100544.22;;;10.41;83.81
30875;BME280;17581;43.222;27.924;2023-12-07T10:34:12;100538.25;;;10.37;83.38
30875;BME280;17581;43.222;27.924;2023-12-07T10:36:38;100535.19;;;10.31;82.44
30875;BME280;17581;43.222;27.924;2023-12-07T10:39:04;100539.63;;;10.21;82.69
30875;BME280;17581;43.222;27.924;2023-12-07T10:41:34;100539.84;;;10.07;82.46
30875;BME280;17581;43.222;27.924;2023-12-07T10:44:01;100532.28;;;10.01;82.72
30875;BME280;17581;43.222;27.924;2023-12-07T10:46:29;100543.78;;;10.03;82.58
30875;BME280;17581;43.222;27.924;2023-12-07T10:49:00;100546.22;;;9.95;82.09
30875;BME280;17581;43.222;27.924;2023-12-07T10:51:42;100539.63;;;9.65;82.37
30875;BME280;17581;43.222;27.924;2023-12-07T10:54:14;100530.31;;;9.58;83.13
30875;BME280;17581;43.222;27.924;2023-12-07T10:56:44;100532.78;;;9.50;83.57
30875;BME280;17581;43.222;27.924;2023-12-07T10:59:12;100546.19;;;9.61;83.63
30875;BME280;17581;43.222;27.924;2023-12-07T11:01:41;100558.66;;;9.62;83.89
30875;BME280;17581;43.222;27.924;2023-12-07T11:04:13;100544.00;;;9.55;83.62
30875;BME280;17581;43.222;27.924;2023-12-07T11:06:45;100555.22;;;9.49;83.96
30875;BME280;17581;43.222;27.924;2023-12-07T11:09:25;100563.88;;;9.53;84.50
30875;BME280;17581;43.222;27.924;2023-12-07T11:12:01;100568.66;;;9.60;84.24
30875;BME280;17581;43.222;27.924;2023-12-07T11:14:28;100565.97;;;9.49;83.59
30875;BME280;17581;43.222;27.924;2023-12-07T11:16:55;100548.00;;;9.39;84.21
30875;BME280;17581;43.222;27.924;2023-12-07T11:22:05;100577.19;;;9.54;84.46
30875;BME280;17581;43.222;27.924;2023-12-07T11:24:31;100563.28;;;9.60;84.61
30875;BME280;17581;43.222;27.924;2023-12-07T11:26:57;100575.97;;;9.58;83.97
30875;BME280;17581;43.222;27.924;2023-12-07T11:29:28;100588.69;;;9.56;83.66
30875;BME280;17581;43.222;27.924;2023-12-07T11:32:01;100564.00;;;9.51;83.39
30875;BME280;17581;43.222;27.924;2023-12-07T11:34:37;100584.97;;;9.46;83.20
30875;BME280;17581;43.222;27.924;2023-12-07T11:37:03;100596.66;;;9.34;84.11
30875;BME280;17581;43.222;27.924;2023-12-07T11:39:29;100591.44;;;9.33;84.04
30875;BME280;17581;43.222;27.924;2023-12-07T11:41:55;100595.78;;;9.22;83.51
30875;BME280;17581;43.222;27.924;2023-12-07T11:44:37;100594.91;;;9.11;84.12
30875;BME280;17581;43.222;27.924;2023-12-07T11:47:04;100591.25;;;8.88;84.02
30875;BME280;17581;43.222;27.924;2023-12-07T11:49:30;100590.16;;;8.91;84.33
30875;BME280;17581;43.222;27.924;2023-12-07T11:51:59;100591.88;;;8.92;84.36
30875;BME280;17581;43.222;27.924;2023-12-07T11:54:28;100600.66;;;8.94;84.70
30875;BME280;17581;43.222;27.924;2023-12-07T11:56:57;100602.38;;;8.95;84.54
30875;BME280;17581;43.222;27.924;2023-12-07T11:59:23;100600.09;;;8.77;83.92
30875;BME280;17581;43.222;27.924;2023-12-07T12:01:51;100566.66;;;8.47;84.12
30875;BME280;17581;43.222;27.924;2023-12-07T12:04:17;100596.94;;;8.60;85.24
30875;BME280;17581;43.222;27.924;2023-12-07T12:06:45;100591.03;;;8.44;85.81
30875;BME280;17581;43.222;27.924;2023-12-07T12:09:14;100597.41;;;8.54;86.20
30875;BME280;17581;43.222;27.924;2023-12-07T12:11:46;100594.31;;;8.47;86.52
30875;BME280;17581;43.222;27.924;2023-12-07T12:14:14;100594.25;;;8.36;86.40
30875;BME280;17581;43.222;27.924;2023-12-07T12:16:39;100597.88;;;8.35;86.29
30875;BME280;17581;43.222;27.924;2023-12-07T12:19:05;100601.56;;;8.34;87.46
30875;BME280;17581;43.222;27.924;2023-12-07T12:21:34;100588.88;;;8.36;87.65
30875;BME280;17581;43.222;27.924;2023-12-07T12:24:00;100566.53;;;8.12;86.96
30875;BME280;17581;43.222;27.924;2023-12-07T12:26:25;100582.66;;;8.23;87.09
30875;BME280;17581;43.222;27.924;2023-12-07T12:28:51;100577.75;;;8.17;86.84
30875;BME280;17581;43.222;27.924;2023-12-07T12:31:18;100591.28;;;8.15;86.39
30875;BME280;17581;43.222;27.924;2023-12-07T12:33:44;100595.53;;;8.18;86.19
30875;BME280;17581;43.222;27.924;2023-12-07T12:36:09;100588.91;;;8.11;86.59
30875;BME280;17581;43.222;27.924;2023-12-07T12:38:38;100589.75;;;8.11;86.37
30875;BME280;17581;43.222;27.924;2023-12-07T12:41:04;100597.72;;;8.13;86.88
30875;BME280;17581;43.222;27.924;2023-12-07T12:43:31;100601.56;;;8.09;87.01
30875;BME280;17581;43.222;27.924;2023-12-07T12:45:57;100598.38;;;8.04;86.83
30875;BME280;17581;43.222;27.924;2023-12-07T12:48:23;100596.66;;;8.03;86.18
30875;BME280;17581;43.222;27.924;2023-12-07T12:50:49;100610.03;;;8.03;86.08
30875;BME280;17581;43.222;27.924;2023-12-07T12:53:14;100610.78;;;8.05;86.60
30875;BME280;17581;43.222;27.924;2023-12-07T12:55:41;100594.72;;;7.92;86.72
30875;BME280;17581;43.222;27.924;2023-12-07T12:58:08;100615.81;;;7.97;86.77
30875;BME280;17581;43.222;27.924;2023-12-07T13:00:37;100600.63;;;7.97;87.13